Time;durP1;ratioP1;P1;durP2;ratioP2;P2;SDS_P1;SDS_P2;PMS_P1;PMS_P2;Temp;Humidity;BMP_temperature;BMP_pressure;BME280_temperature;BME280_humidity;BME280_pressure;Samples;Min_cycle;Max_cycle;Signal;HPM_P1;HPM_P2
2023/06/25 00:00:34;;;;;;;3.08;2.80;;;;;;;;;;5144712;27;20034;-59
2023/06/25 00:03:00;;;;;;;4.90;3.17;;;;;;;;;;5135335;27;20039;-59
2023/06/25 00:05:25;;;;;;;5.95;2.88;;;;;;;;;;5135031;27;20046;-60
2023/06/25 00:07:51;;;;;;;3.22;2.80;;;;;;;;;;5137063;27;20037;-60
2023/06/25 00:10:18;;;;;;;4.55;2.60;;;;;;;;;;5146331;27;20530;-60
2023/06/25 00:12:43;;;;;;;3.10;2.80;;;;;;;;;;5148222;27;20498;-60
2023/06/25 00:15:10;;;;;;;3.55;2.60;;;;;;;;;;5147988;27;20023;-59
2023/06/25 00:17:36;;;;;;;3.97;2.70;;;;;;;;;;5149290;27;20029;-61
2023/06/25 00:20:03;;;;;;;4.57;2.47;;;;;;;;;;5142982;27;20030;-61
2023/06/25 00:22:29;;;;;;;5.25;2.60;;;;;;;;;;5148902;27;20026;-62
2023/06/25 00:24:55;;;;;;;10.20;2.58;;;;;;;;;;5149087;27;20079;-61
2023/06/25 00:27:20;;;;;;;5.47;2.42;;;;;;;;;;5131217;27;20023;-62
2023/06/25 00:29:46;;;;;;;4.75;2.58;;;;;;;;;;5145319;27;20117;-60
2023/06/25 00:32:15;;;;;;;4.75;3.03;;;;;;;;;;5144906;27;20105;-59
2023/06/25 00:34:41;;;;;;;4.80;2.60;;;;;;;;;;5148652;27;20026;-59
2023/06/25 00:37:16;;;;;;;3.00;2.40;;;;;;;;;;5147782;27;20513;-59
2023/06/25 00:39:46;;;;;;;4.00;2.60;;;;;;;;;;5145946;27;20023;-60
2023/06/25 00:42:12;;;;;;;4.43;2.83;;;;;;;;;;5143639;27;20026;-59
2023/06/25 00:44:43;;;;;;;3.55;2.70;;;;;;;;;;5144478;27;20368;-61
2023/06/25 00:47:15;;;;;;;3.33;2.58;;;;;;;;;;5147142;27;20030;-59
2023/06/25 00:49:43;;;;;;;2.80;2.45;;;;;;;;;;5147117;27;20050;-59
2023/06/25 00:52:11;;;;;;;4.93;2.83;;;;;;;;;;5143029;27;20034;-60
2023/06/25 00:54:42;;;;;;;5.85;2.72;;;;;;;;;;5142055;27;20371;-61
2023/06/25 00:57:09;;;;;;;3.13;2.50;;;;;;;;;;5146444;27;20029;-60
2023/06/25 00:59:37;;;;;;;4.13;2.60;;;;;;;;;;5145116;27;20534;-60
2023/06/25 01:02:28;;;;;;;3.30;2.42;;;;;;;;;;5147436;27;20053;-60
2023/06/25 01:05:19;;;;;;;3.33;3.03;;;;;;;;;;5145708;27;20388;-59
2023/06/25 01:07:45;;;;;;;3.30;2.42;;;;;;;;;;5148047;27;20027;-59
2023/06/25 01:10:12;;;;;;;4.00;2.53;;;;;;;;;;5138557;27;20023;-60
2023/06/25 01:12:38;;;;;;;2.88;2.33;;;;;;;;;;5114337;27;20027;-60
2023/06/25 01:15:05;;;;;;;2.75;2.22;;;;;;;;;;5133222;27;20079;-59
2023/06/25 01:17:30;;;;;;;2.90;2.63;;;;;;;;;;5133131;27;20028;-60
2023/06/25 01:19:56;;;;;;;8.00;2.70;;;;;;;;;;5132289;27;20019;-60
2023/06/25 01:22:31;;;;;;;2.70;2.50;;;;;;;;;;5133366;27;20488;-59
2023/06/25 01:24:57;;;;;;;2.72;2.35;;;;;;;;;;5133352;27;20031;-60
2023/06/25 01:27:23;;;;;;;2.88;2.50;;;;;;;;;;5133177;27;20019;-60
2023/06/25 01:29:49;;;;;;;4.70;2.60;;;;;;;;;;5133370;27;20030;-59
2023/06/25 01:32:15;;;;;;;4.70;2.90;;;;;;;;;;5133284;27;20084;-60
2023/06/25 01:34:41;;;;;;;5.35;2.60;;;;;;;;;;5133433;27;20475;-60
2023/06/25 01:37:07;;;;;;;3.60;2.28;;;;;;;;;;5133767;27;20030;-60
2023/06/25 01:39:32;;;;;;;5.20;3.47;;;;;;;;;;5133230;28;20420;-60
2023/06/25 01:41:58;;;;;;;3.67;2.65;;;;;;;;;;5133385;28;20035;-59
2023/06/25 01:44:28;;;;;;;3.58;2.60;;;;;;;;;;5133383;28;20023;-60
2023/06/25 01:46:55;;;;;;;3.55;2.75;;;;;;;;;;5133307;28;20019;-60
2023/06/25 01:49:21;;;;;;;2.53;2.33;;;;;;;;;;5133563;28;20023;-59
2023/06/25 01:51:47;;;;;;;2.58;2.28;;;;;;;;;;5133126;28;20035;-59
2023/06/25 01:54:12;;;;;;;3.03;2.50;;;;;;;;;;5133288;28;20084;-60
2023/06/25 01:56:38;;;;;;;3.05;2.50;;;;;;;;;;5133296;28;20030;-60
2023/06/25 01:59:03;;;;;;;5.22;2.53;;;;;;;;;;5133183;28;20102;-60
2023/06/25 02:01:29;;;;;;;3.40;2.58;;;;;;;;;;5133464;28;20019;-59
2023/06/25 02:03:55;;;;;;;4.25;2.63;;;;;;;;;;5133110;28;20537;-59
2023/06/25 02:06:21;;;;;;;2.97;2.53;;;;;;;;;;5114774;28;20019;-59
2023/06/25 02:08:46;;;;;;;3.72;2.70;;;;;;;;;;5136244;27;20016;-60
2023/06/25 02:11:15;;;;;;;3.60;2.50;;;;;;;;;;5137339;27;20173;-59
2023/06/25 02:13:40;;;;;;;4.93;2.50;;;;;;;;;;5137139;27;20027;-60
2023/06/25 02:16:06;;;;;;;2.95;2.45;;;;;;;;;;5137108;27;20029;-60
2023/06/25 02:18:32;;;;;;;2.90;2.38;;;;;;;;;;5137075;27;20027;-60
2023/06/25 02:20:58;;;;;;;2.90;2.45;;;;;;;;;;5136950;27;20019;-60
2023/06/25 02:23:24;;;;;;;3.72;2.38;;;;;;;;;;5136937;27;20054;-59
2023/06/25 02:25:50;;;;;;;5.40;2.58;;;;;;;;;;5137416;27;20066;-60
2023/06/25 02:28:16;;;;;;;3.03;2.72;;;;;;;;;;5137186;27;20102;-59
2023/06/25 02:30:42;;;;;;;3.20;2.80;;;;;;;;;;5137811;27;20031;-43
2023/06/25 02:33:08;;;;;;;3.88;2.70;;;;;;;;;;5137030;27;20026;-59
2023/06/25 02:35:34;;;;;;;3.92;2.50;;;;;;;;;;5136981;27;20011;-59
2023/06/25 02:38:00;;;;;;;3.28;2.38;;;;;;;;;;5136930;27;20023;-60
2023/06/25 02:40:28;;;;;;;2.85;2.50;;;;;;;;;;5136602;27;20381;-59
2023/06/25 02:42:55;;;;;;;3.67;2.60;;;;;;;;;;5136836;27;20027;-60
2023/06/25 02:45:21;;;;;;;2.60;2.40;;;;;;;;;;5136514;27;20110;-59
2023/06/25 02:47:47;;;;;;;2.75;2.53;;;;;;;;;;5136766;27;20099;-60
2023/06/25 02:50:12;;;;;;;2.80;2.58;;;;;;;;;;5136336;27;20490;-59
2023/06/25 02:52:38;;;;;;;2.75;2.30;;;;;;;;;;5136443;27;20034;-59
2023/06/25 02:55:04;;;;;;;3.50;2.55;;;;;;;;;;5136623;27;20055;-59
2023/06/25 02:57:29;;;;;;;2.85;2.53;;;;;;;;;;5136228;27;20058;-59
2023/06/25 02:59:56;;;;;;;3.65;2.35;;;;;;;;;;5136330;27;20054;-60
2023/06/25 03:02:21;;;;;;;2.70;2.50;;;;;;;;;;5136514;27;20063;-60
2023/06/25 03:04:47;;;;;;;2.75;2.55;;;;;;;;;;5136101;27;20383;-60
2023/06/25 03:07:13;;;;;;;2.97;2.58;;;;;;;;;;5136861;27;20027;-60
2023/06/25 03:09:42;;;;;;;2.63;2.28;;;;;;;;;;5136318;27;20023;-60
2023/06/25 03:12:08;;;;;;;3.87;2.90;;;;;;;;;;5135943;27;20042;-60
2023/06/25 03:14:35;;;;;;;4.20;2.42;;;;;;;;;;5135975;27;20023;-60
2023/06/25 03:17:02;;;;;;;2.70;2.50;;;;;;;;;;5135848;27;20023;-60
2023/06/25 03:19:27;;;;;;;4.38;2.70;;;;;;;;;;5135269;27;20581;-59
2023/06/25 03:21:53;;;;;;;2.58;2.38;;;;;;;;;;5136210;27;20204;-59
2023/06/25 03:24:18;;;;;;;3.63;2.10;;;;;;;;;;5135761;27;20066;-59
2023/06/25 03:26:44;;;;;;;2.90;2.60;;;;;;;;;;5136028;27;20028;-59
2023/06/25 03:29:09;;;;;;;2.50;2.05;;;;;;;;;;5136060;27;20023;-59
2023/06/25 03:31:35;;;;;;;5.60;2.55;;;;;;;;;;5135580;27;20141;-59
2023/06/25 03:34:00;;;;;;;3.00;2.40;;;;;;;;;;5135684;27;20039;-59
2023/06/25 03:36:26;;;;;;;3.10;2.45;;;;;;;;;;5135802;27;20023;-59
2023/06/25 03:38:51;;;;;;;3.63;2.70;;;;;;;;;;5135617;27;20471;-60
2023/06/25 03:41:17;;;;;;;2.50;2.30;;;;;;;;;;5135325;27;20128;-60
2023/06/25 03:43:42;;;;;;;2.65;2.10;;;;;;;;;;5135426;27;20059;-59
2023/06/25 03:46:08;;;;;;;3.15;2.35;;;;;;;;;;5117057;27;20421;-60
2023/06/25 03:48:33;;;;;;;2.50;2.30;;;;;;;;;;5135426;27;20027;-59
2023/06/25 03:50:59;;;;;;;3.30;2.40;;;;;;;;;;5135133;27;20054;-59
2023/06/25 03:53:26;;;;;;;2.50;2.30;;;;;;;;;;5135303;27;20019;-60
2023/06/25 03:55:52;;;;;;;2.70;2.20;;;;;;;;;;5135491;27;20063;-61
2023/06/25 03:58:18;;;;;;;2.80;2.60;;;;;;;;;;5135074;27;20483;-59
2023/06/25 04:00:44;;;;;;;2.40;2.20;;;;;;;;;;5135084;27;20015;-60
2023/06/25 04:03:10;;;;;;;2.95;2.25;;;;;;;;;;5134978;27;20107;-59
2023/06/25 04:05:36;;;;;;;2.47;2.13;;;;;;;;;;5135010;27;20063;-61
2023/06/25 04:08:01;;;;;;;2.60;2.40;;;;;;;;;;5135008;27;20030;-61
2023/06/25 04:10:27;;;;;;;2.63;2.42;;;;;;;;;;5134767;27;20062;-61
2023/06/25 04:12:53;;;;;;;2.40;2.20;;;;;;;;;;5116512;27;20027;-61
2023/06/25 04:15:18;;;;;;;2.65;2.22;;;;;;;;;;5134763;27;20035;-59
2023/06/25 04:17:46;;;;;;;2.67;2.28;;;;;;;;;;5134945;27;20023;-60
2023/06/25 04:20:12;;;;;;;5.28;2.50;;;;;;;;;;5134712;27;20064;-59
2023/06/25 04:22:37;;;;;;;5.28;2.50;;;;;;;;;;5134643;27;20031;-59
2023/06/25 04:25:03;;;;;;;5.38;2.67;;;;;;;;;;5134668;27;20031;-60
2023/06/25 04:27:29;;;;;;;2.63;2.38;;;;;;;;;;5134509;27;20471;-60
2023/06/25 04:29:54;;;;;;;3.80;2.60;;;;;;;;;;5134722;27;20022;-59
2023/06/25 04:32:20;;;;;;;2.53;2.33;;;;;;;;;;5133385;27;20540;-60
2023/06/25 04:34:45;;;;;;;3.00;2.70;;;;;;;;;;5134450;27;20033;-61
2023/06/25 04:37:11;;;;;;;2.83;2.38;;;;;;;;;;5134626;27;20027;-61
2023/06/25 04:39:39;;;;;;;3.17;2.20;;;;;;;;;;5134216;27;20483;-61
2023/06/25 04:42:05;;;;;;;3.33;2.40;;;;;;;;;;5134595;27;20075;-61
2023/06/25 04:44:31;;;;;;;4.20;2.40;;;;;;;;;;5134167;27;20524;-60
2023/06/25 04:46:56;;;;;;;2.78;2.53;;;;;;;;;;5134728;27;20102;-59
2023/06/25 04:49:22;;;;;;;3.30;2.45;;;;;;;;;;5134058;27;20460;-59
2023/06/25 04:51:47;;;;;;;2.25;2.13;;;;;;;;;;5133964;27;20156;-59
2023/06/25 04:54:13;;;;;;;4.30;2.15;;;;;;;;;;5134044;27;20034;-59
2023/06/25 04:56:38;;;;;;;2.70;2.13;;;;;;;;;;5134223;27;20023;-60
2023/06/25 04:59:04;;;;;;;3.83;2.40;;;;;;;;;;5134012;27;20031;-60
2023/06/25 05:01:30;;;;;;;3.30;2.50;;;;;;;;;;5134190;27;20544;-61
2023/06/25 05:03:55;;;;;;;2.80;2.40;;;;;;;;;;5134084;27;20495;-59
2023/06/25 05:06:21;;;;;;;2.70;2.50;;;;;;;;;;5134140;27;20058;-60
2023/06/25 05:08:46;;;;;;;3.25;2.55;;;;;;;;;;5134358;27;20464;-60
2023/06/25 05:11:12;;;;;;;2.92;2.55;;;;;;;;;;5133751;27;20103;-60
2023/06/25 05:13:38;;;;;;;3.75;2.50;;;;;;;;;;5133848;27;20023;-60
2023/06/25 05:16:04;;;;;;;2.40;2.20;;;;;;;;;;5133644;27;20368;-60
2023/06/25 05:18:30;;;;;;;2.78;2.47;;;;;;;;;;5133724;27;20079;-59
2023/06/25 05:20:55;;;;;;;5.28;2.33;;;;;;;;;;5133557;27;20031;-59
2023/06/25 05:23:21;;;;;;;3.55;2.42;;;;;;;;;;5133599;27;20103;-60
2023/06/25 05:25:47;;;;;;;3.53;2.72;;;;;;;;;;5133512;27;20055;-60
2023/06/25 05:28:13;;;;;;;2.88;2.55;;;;;;;;;;5133559;27;20027;-59
2023/06/25 05:30:41;;;;;;;2.45;2.20;;;;;;;;;;5133382;27;20065;-59
2023/06/25 05:33:07;;;;;;;2.70;2.47;;;;;;;;;;5133508;27;20027;-59
2023/06/25 05:35:32;;;;;;;2.90;2.60;;;;;;;;;;5133437;27;20033;-60
2023/06/25 05:37:58;;;;;;;2.58;2.38;;;;;;;;;;5133654;27;20027;-59
2023/06/25 05:40:25;;;;;;;3.70;2.80;;;;;;;;;;5133151;28;20494;-60
2023/06/25 05:42:51;;;;;;;2.17;2.08;;;;;;;;;;5132981;27;20039;-60
2023/06/25 05:45:16;;;;;;;2.83;2.50;;;;;;;;;;5133288;28;20027;-60
2023/06/25 05:47:43;;;;;;;2.90;2.60;;;;;;;;;;5133628;28;20237;-60
2023/06/25 05:50:09;;;;;;;4.03;2.58;;;;;;;;;;5133321;28;20495;-60
2023/06/25 05:52:35;;;;;;;3.03;2.67;;;;;;;;;;5114799;28;20080;-60
2023/06/25 05:55:00;;;;;;;2.58;2.38;;;;;;;;;;5133725;28;20019;-60
2023/06/25 05:57:26;;;;;;;3.22;2.67;;;;;;;;;;5133307;28;20072;-59
2023/06/25 05:59:51;;;;;;;2.63;2.42;;;;;;;;;;5133199;28;20019;-60
2023/06/25 06:02:17;;;;;;;4.13;2.70;;;;;;;;;;5133109;28;20035;-60
2023/06/25 06:04:43;;;;;;;2.63;2.42;;;;;;;;;;5133239;28;20027;-59
2023/06/25 06:07:08;;;;;;;4.82;2.80;;;;;;;;;;5133360;28;20383;-60
2023/06/25 06:09:34;;;;;;;2.72;2.47;;;;;;;;;;5133395;28;20015;-60
2023/06/25 06:11:59;;;;;;;3.13;2.83;;;;;;;;;;5133374;28;20376;-59
2023/06/25 06:14:25;;;;;;;2.53;2.30;;;;;;;;;;5133036;28;20479;-59
2023/06/25 06:16:50;;;;;;;2.75;2.30;;;;;;;;;;5114772;28;20026;-60
2023/06/25 06:19:16;;;;;;;2.47;2.28;;;;;;;;;;5133292;28;20071;-60
2023/06/25 06:21:42;;;;;;;2.67;2.47;;;;;;;;;;5133232;28;20042;-59
2023/06/25 06:24:07;;;;;;;3.00;2.65;;;;;;;;;;5132982;28;20383;-60
2023/06/25 06:26:35;;;;;;;2.55;2.35;;;;;;;;;;5133252;28;20068;-60
2023/06/25 06:29:03;;;;;;;2.50;2.30;;;;;;;;;;5114475;28;20472;-61
2023/06/25 06:31:31;;;;;;;2.97;2.53;;;;;;;;;;5133167;28;20027;-60
2023/06/25 06:33:57;;;;;;;2.53;2.33;;;;;;;;;;5132851;28;20031;-60
2023/06/25 06:36:22;;;;;;;2.90;2.47;;;;;;;;;;5132887;28;20034;-60
2023/06/25 06:38:48;;;;;;;3.05;2.65;;;;;;;;;;5132949;28;20030;-60
2023/06/25 06:41:13;;;;;;;2.90;2.67;;;;;;;;;;5132635;28;20099;-60
2023/06/25 06:43:39;;;;;;;3.28;2.50;;;;;;;;;;5133060;28;20494;-59
2023/06/25 06:46:04;;;;;;;4.50;2.40;;;;;;;;;;5132877;28;20551;-59
2023/06/25 06:48:30;;;;;;;3.10;2.45;;;;;;;;;;5114305;28;20395;-59
2023/06/25 06:50:56;;;;;;;2.65;2.45;;;;;;;;;;5132610;28;20027;-59
2023/06/25 06:53:21;;;;;;;5.53;2.40;;;;;;;;;;5132713;27;20027;-60
2023/06/25 06:55:47;;;;;;;3.20;2.17;;;;;;;;;;5135482;27;20031;-60
2023/06/25 06:58:12;;;;;;;2.65;2.40;;;;;;;;;;5136687;27;20023;-60
2023/06/25 07:00:38;;;;;;;3.13;2.45;;;;;;;;;;5136202;27;20027;-59
2023/06/25 07:03:03;;;;;;;3.58;2.65;;;;;;;;;;5136171;27;20019;-59
2023/06/25 07:05:29;;;;;;;3.40;2.67;;;;;;;;;;5136173;27;20035;-59
2023/06/25 07:07:55;;;;;;;3.70;2.50;;;;;;;;;;5136157;27;20023;-60
2023/06/25 07:10:23;;;;;;;2.83;2.53;;;;;;;;;;5136030;27;20493;-59
2023/06/25 07:12:49;;;;;;;2.70;2.50;;;;;;;;;;5136082;27;20023;-60
2023/06/25 07:15:14;;;;;;;2.75;2.55;;;;;;;;;;5135894;27;20019;-59
2023/06/25 07:17:41;;;;;;;3.08;2.55;;;;;;;;;;5136329;27;20087;-60
2023/06/25 07:20:08;;;;;;;2.40;2.20;;;;;;;;;;5135879;27;20026;-59
2023/06/25 07:22:34;;;;;;;2.70;2.45;;;;;;;;;;5135846;27;20495;-60
2023/06/25 07:25:02;;;;;;;2.70;2.50;;;;;;;;;;5135798;27;20062;-59
2023/06/25 07:27:28;;;;;;;4.03;2.70;;;;;;;;;;5135709;27;20027;-60
2023/06/25 07:29:53;;;;;;;2.70;2.50;;;;;;;;;;5136042;27;20072;-59
2023/06/25 07:32:19;;;;;;;2.85;2.58;;;;;;;;;;5135701;27;20380;-60
2023/06/25 07:34:44;;;;;;;3.05;2.40;;;;;;;;;;5135839;27;20360;-59
2023/06/25 07:37:10;;;;;;;2.80;2.60;;;;;;;;;;5135859;27;20045;-59
2023/06/25 07:39:36;;;;;;;2.60;2.40;;;;;;;;;;5135661;27;20066;-60
2023/06/25 07:42:01;;;;;;;2.63;2.38;;;;;;;;;;5135754;27;20019;-60
2023/06/25 07:44:27;;;;;;;2.72;2.33;;;;;;;;;;5135725;27;20382;-60
2023/06/25 07:46:52;;;;;;;2.70;2.50;;;;;;;;;;5135688;27;20368;-60
2023/06/25 07:49:18;;;;;;;2.42;2.22;;;;;;;;;;5135287;27;20373;-60
2023/06/25 07:51:45;;;;;;;2.92;2.63;;;;;;;;;;5135515;27;20027;-60
2023/06/25 07:54:12;;;;;;;3.00;2.60;;;;;;;;;;5135453;27;20026;-59
2023/06/25 07:56:37;;;;;;;3.80;2.70;;;;;;;;;;5135260;27;20277;-60
2023/06/25 07:59:03;;;;;;;3.75;2.75;;;;;;;;;;5135163;27;20307;-60
2023/06/25 08:01:29;;;;;;;3.38;2.50;;;;;;;;;;5135339;27;20031;-59
2023/06/25 08:03:56;;;;;;;2.97;2.50;;;;;;;;;;5135057;27;20490;-59
2023/06/25 08:06:21;;;;;;;2.67;2.47;;;;;;;;;;5135192;27;20051;-60
2023/06/25 08:08:47;;;;;;;2.90;2.65;;;;;;;;;;5135003;27;20497;-59
2023/06/25 08:11:13;;;;;;;2.70;2.28;;;;;;;;;;5116435;27;20050;-60
2023/06/25 08:13:38;;;;;;;3.05;2.20;;;;;;;;;;5099414;27;20072;-59
2023/06/25 08:16:04;;;;;;;2.47;2.28;;;;;;;;;;5135078;27;20052;-60
2023/06/25 08:18:30;;;;;;;2.90;2.60;;;;;;;;;;5134745;27;20456;-60
2023/06/25 08:20:55;;;;;;;2.65;2.45;;;;;;;;;;5134674;27;20031;-59
2023/06/25 08:23:21;;;;;;;2.80;2.60;;;;;;;;;;5134691;27;20023;-59
2023/06/25 08:25:47;;;;;;;2.72;2.53;;;;;;;;;;5134852;27;20027;-59
2023/06/25 08:28:13;;;;;;;2.80;2.50;;;;;;;;;;5134516;27;20106;-60
2023/06/25 08:30:39;;;;;;;2.72;2.53;;;;;;;;;;5134420;27;20535;-60
2023/06/25 08:33:04;;;;;;;2.75;2.47;;;;;;;;;;5134498;27;20050;-59
2023/06/25 08:35:30;;;;;;;2.95;2.70;;;;;;;;;;5134396;27;20360;-60
2023/06/25 08:37:56;;;;;;;2.63;2.42;;;;;;;;;;5135514;27;20039;-59
2023/06/25 08:40:22;;;;;;;2.50;2.30;;;;;;;;;;5146752;27;20062;-61
2023/06/25 08:42:48;;;;;;;3.80;2.72;;;;;;;;;;5148848;27;20019;-61
2023/06/25 08:45:14;;;;;;;2.92;2.38;;;;;;;;;;5131571;27;20063;-59
2023/06/25 08:47:40;;;;;;;2.92;2.40;;;;;;;;;;5144123;27;20030;-61
2023/06/25 08:50:08;;;;;;;3.00;2.70;;;;;;;;;;5144804;27;20029;-59
2023/06/25 08:52:34;;;;;;;4.47;2.60;;;;;;;;;;5151926;27;20379;-60
2023/06/25 08:55:00;;;;;;;3.53;2.65;;;;;;;;;;5154803;27;20553;-59
2023/06/25 08:57:26;;;;;;;2.30;2.20;;;;;;;;;;5154623;27;20140;-60
2023/06/25 08:59:52;;;;;;;3.30;3.00;;;;;;;;;;5148753;27;20026;-60
2023/06/25 09:02:18;;;;;;;7.90;3.45;;;;;;;;;;5154443;27;20103;-61
2023/06/25 09:04:46;;;;;;;4.30;3.50;;;;;;;;;;5154698;27;20584;-60
2023/06/25 09:07:19;;;;;;;4.20;3.80;;;;;;;;;;5154413;27;20023;-60
2023/06/25 09:09:45;;;;;;;5.70;4.07;;;;;;;;;;5154456;27;20031;-60
2023/06/25 09:12:10;;;;;;;5.15;4.10;;;;;;;;;;5154256;27;20145;-59
2023/06/25 09:14:36;;;;;;;4.35;3.95;;;;;;;;;;5154722;27;20022;-59
2023/06/25 09:17:03;;;;;;;4.85;3.90;;;;;;;;;;5153798;27;20097;-59
2023/06/25 09:19:28;;;;;;;4.70;3.90;;;;;;;;;;5154142;27;20014;-60
2023/06/25 09:21:54;;;;;;;4.53;3.90;;;;;;;;;;5154633;27;20033;-61
2023/06/25 09:24:21;;;;;;;6.50;4.40;;;;;;;;;;5154263;27;20026;-60
2023/06/25 09:26:48;;;;;;;6.15;3.85;;;;;;;;;;5154423;27;20030;-60
2023/06/25 09:29:14;;;;;;;5.72;4.20;;;;;;;;;;5154218;27;20079;-59
2023/06/25 09:31:43;;;;;;;4.75;4.25;;;;;;;;;;5154089;27;20023;-60
2023/06/25 09:34:10;;;;;;;4.72;4.20;;;;;;;;;;5153807;27;20026;-60
2023/06/25 09:36:36;;;;;;;5.93;3.80;;;;;;;;;;5154382;27;20050;-61
2023/06/25 09:39:03;;;;;;;4.25;3.85;;;;;;;;;;5153908;27;20393;-60
2023/06/25 09:41:30;;;;;;;6.30;4.30;;;;;;;;;;5153770;27;20042;-61
2023/06/25 09:43:56;;;;;;;4.82;3.78;;;;;;;;;;5153984;27;20021;-60
2023/06/25 09:46:23;;;;;;;6.45;3.97;;;;;;;;;;5154229;27;20378;-60
2023/06/25 09:48:53;;;;;;;6.03;4.20;;;;;;;;;;5151992;27;20585;-61
2023/06/25 09:51:19;;;;;;;;;;;;;;;;;;5154435;27;20026;-60
2023/06/25 09:53:52;;;;;;;6.45;3.63;;;;;;;;;;5152647;27;19934;-59
2023/06/25 09:56:21;;;;;;;4.13;3.72;;;;;;;;;;5152119;27;20029;-59
2023/06/25 09:58:46;;;;;;;4.37;3.97;;;;;;;;;;5145786;27;20027;-60
2023/06/25 10:01:12;;;;;;;5.05;4.20;;;;;;;;;;5133618;27;20274;-60
2023/06/25 10:03:38;;;;;;;7.32;4.05;;;;;;;;;;5152097;27;20026;-59
2023/06/25 10:06:04;;;;;;;6.32;3.75;;;;;;;;;;5152459;27;20022;-60
2023/06/25 10:08:32;;;;;;;4.63;3.85;;;;;;;;;;5152107;27;20022;-60
2023/06/25 10:11:00;;;;;;;4.38;3.95;;;;;;;;;;5152215;27;20062;-60
2023/06/25 10:13:26;;;;;;;4.90;4.10;;;;;;;;;;5152175;27;20033;-61
2023/06/25 10:15:59;;;;;;;8.85;4.05;;;;;;;;;;5151979;27;20063;-60
2023/06/25 10:18:25;;;;;;;5.32;3.20;;;;;;;;;;5152272;27;20023;-60
2023/06/25 10:20:54;;;;;;;8.40;4.10;;;;;;;;;;5147284;27;20487;-61
2023/06/25 10:23:21;;;;;;;;;;;;;;;;;;5151593;27;20022;-58
2023/06/25 10:25:55;;;;;;;6.82;3.58;;;;;;;;;;5152005;27;19915;-59
2023/06/25 10:28:29;;;;;;;6.28;3.80;;;;;;;;;;5151814;27;20543;-59
2023/06/25 10:30:54;;;;;;;6.80;3.85;;;;;;;;;;5155141;27;20533;-59
2023/06/25 10:33:20;;;;;;;4.40;3.50;;;;;;;;;;5137207;27;20034;-59
2023/06/25 10:35:54;;;;;;;5.43;3.53;;;;;;;;;;5155878;27;20513;-59
2023/06/25 10:38:20;;;;;;;7.82;3.70;;;;;;;;;;5155775;27;20023;-59
2023/06/25 10:40:46;;;;;;;5.47;3.65;;;;;;;;;;5151166;27;20095;-59
2023/06/25 10:43:19;;;;;;;5.90;3.78;;;;;;;;;;5134967;27;20055;-59
2023/06/25 10:45:51;;;;;;;5.82;3.60;;;;;;;;;;5134691;27;20102;-59
2023/06/25 10:48:17;;;;;;;6.78;3.67;;;;;;;;;;5135115;27;20023;-59
2023/06/25 10:50:43;;;;;;;5.60;3.38;;;;;;;;;;5134623;27;20031;-59
2023/06/25 10:53:11;;;;;;;5.97;3.38;;;;;;;;;;5134943;27;20035;-61
2023/06/25 10:55:38;;;;;;;4.90;3.22;;;;;;;;;;5134710;27;20054;-61
2023/06/25 10:58:04;;;;;;;4.32;3.20;;;;;;;;;;5135740;27;20027;-61
2023/06/25 11:00:30;;;;;;;5.20;3.33;;;;;;;;;;5155421;27;20360;-61
2023/06/25 11:02:56;;;;;;;3.58;3.28;;;;;;;;;;5155292;27;20022;-61
2023/06/25 11:05:36;;;;;;;3.88;3.25;;;;;;;;;;5155167;27;20027;-61
2023/06/25 11:08:04;;;;;;;6.03;3.80;;;;;;;;;;5155132;27;20047;-61
2023/06/25 11:10:31;;;;;;;4.00;3.10;;;;;;;;;;5155379;27;20422;-61
2023/06/25 11:12:58;;;;;;;21.60;4.38;;;;;;;;;;5154963;27;20034;-61
2023/06/25 11:15:23;;;;;;;9.95;4.18;;;;;;;;;;5154837;27;20103;-62
2023/06/25 11:17:53;;;;;;;16.67;4.43;;;;;;;;;;5155034;27;20026;-63
2023/06/25 15:06:20;;;;;;;14.43;7.05;;;;;;;;;;5935299;22;20053;-58
2023/06/25 15:08:45;;;;;;;21.50;7.05;;;;;;;;;;5052434;28;20036;-59
2023/06/25 15:11:11;;;;;;;13.90;6.60;;;;;;;;;;5054876;28;20079;-59
2023/06/25 15:13:36;;;;;;;15.13;7.30;;;;;;;;;;5054953;28;20052;-58
2023/06/25 15:16:02;;;;;;;13.23;7.93;;;;;;;;;;5054170;28;20461;-58
2023/06/25 15:18:27;;;;;;;9.18;6.68;;;;;;;;;;5054848;28;20491;-59
2023/06/25 15:20:53;;;;;;;20.65;6.80;;;;;;;;;;5054948;28;20037;-58
2023/06/25 15:23:19;;;;;;;18.27;7.07;;;;;;;;;;5054704;28;20488;-58
2023/06/25 15:25:44;;;;;;;14.32;7.18;;;;;;;;;;5054691;28;20067;-60
2023/06/25 15:28:10;;;;;;;10.18;6.65;;;;;;;;;;5053740;28;20562;-58
2023/06/25 15:30:35;;;;;;;14.77;6.70;;;;;;;;;;5054392;28;20025;-57
2023/06/25 15:33:01;;;;;;;18.65;7.13;;;;;;;;;;5054438;28;20021;-59
2023/06/25 15:35:26;;;;;;;26.10;8.77;;;;;;;;;;5054506;28;20032;-59
2023/06/25 15:37:52;;;;;;;13.45;7.88;;;;;;;;;;5054790;28;20028;-59
2023/06/25 15:40:17;;;;;;;14.02;8.73;;;;;;;;;;5052969;28;20082;-59
2023/06/25 15:42:43;;;;;;;13.65;9.57;;;;;;;;;;5053261;28;20032;-59
2023/06/25 15:45:09;;;;;;;17.50;10.20;;;;;;;;;;5052167;28;20029;-60
2023/06/25 15:47:35;;;;;;;19.08;11.40;;;;;;;;;;5053243;28;20508;-60
2023/06/25 15:50:00;;;;;;;15.55;10.85;;;;;;;;;;5053554;28;20068;-59
2023/06/25 15:52:26;;;;;;;18.55;11.82;;;;;;;;;;5053503;28;20363;-59
2023/06/25 15:54:53;;;;;;;16.08;11.07;;;;;;;;;;5053986;28;20748;-58
2023/06/25 15:57:18;;;;;;;12.73;11.13;;;;;;;;;;5054220;28;20075;-58
2023/06/25 15:59:44;;;;;;;13.05;11.18;;;;;;;;;;5054344;28;20025;-58
2023/06/25 16:02:10;;;;;;;14.18;10.60;;;;;;;;;;5053820;28;20082;-58
2023/06/25 16:04:36;;;;;;;15.35;11.77;;;;;;;;;;5053901;28;20032;-59
2023/06/25 16:07:02;;;;;;;14.63;11.27;;;;;;;;;;5053779;28;20025;-58
2023/06/25 16:09:29;;;;;;;14.07;10.93;;;;;;;;;;5053774;28;20094;-58
2023/06/25 16:11:54;;;;;;;13.85;10.20;;;;;;;;;;5053738;28;20452;-59
2023/06/25 16:14:20;;;;;;;11.32;10.13;;;;;;;;;;5035689;28;20473;-58
2023/06/25 16:16:45;;;;;;;14.05;10.13;;;;;;;;;;5053881;28;20021;-59
2023/06/25 16:19:11;;;;;;;15.75;10.40;;;;;;;;;;5053549;28;20075;-59
2023/06/25 16:21:38;;;;;;;12.90;10.10;;;;;;;;;;5053591;28;20107;-59
2023/06/25 16:24:04;;;;;;;13.68;10.38;;;;;;;;;;5053492;28;20024;-59
2023/06/25 16:26:29;;;;;;;14.40;10.80;;;;;;;;;;5053345;28;20048;-59
2023/06/25 16:28:55;;;;;;;13.18;9.63;;;;;;;;;;5053702;28;20056;-59
2023/06/25 16:31:20;;;;;;;13.65;10.15;;;;;;;;;;5035329;28;20496;-59
2023/06/25 16:33:46;;;;;;;16.63;10.25;;;;;;;;;;5053579;28;20032;-59
2023/06/25 16:36:12;;;;;;;11.32;9.75;;;;;;;;;;5052016;28;20474;-59
2023/06/25 16:38:37;;;;;;;13.00;9.93;;;;;;;;;;5053254;28;20080;-58
2023/06/25 16:41:03;;;;;;;10.60;9.40;;;;;;;;;;5053120;28;20028;-59
2023/06/25 16:43:28;;;;;;;12.90;10.30;;;;;;;;;;5053428;28;20032;-59
2023/06/25 16:45:54;;;;;;;15.35;10.20;;;;;;;;;;5052755;28;20535;-59
2023/06/25 16:48:19;;;;;;;11.68;9.88;;;;;;;;;;5053039;28;20037;-59
2023/06/25 16:50:45;;;;;;;10.73;9.63;;;;;;;;;;5052735;28;20052;-58
2023/06/25 16:53:11;;;;;;;13.50;9.50;;;;;;;;;;5052649;28;20068;-58
2023/06/25 16:55:36;;;;;;;12.30;9.77;;;;;;;;;;5053194;28;20029;-59
2023/06/25 16:58:02;;;;;;;10.18;9.02;;;;;;;;;;5052873;28;20025;-60
2023/06/25 17:00:28;;;;;;;11.68;9.07;;;;;;;;;;5052018;28;20431;-59
2023/06/25 17:02:53;;;;;;;13.20;9.68;;;;;;;;;;5052912;28;20436;-59
2023/06/25 17:05:19;;;;;;;11.57;9.40;;;;;;;;;;5051349;28;20021;-59
2023/06/25 17:07:45;;;;;;;12.32;9.23;;;;;;;;;;5052425;28;20130;-60
2023/06/25 17:10:10;;;;;;;12.60;9.75;;;;;;;;;;5052539;28;20057;-59
2023/06/25 17:12:36;;;;;;;13.40;9.93;;;;;;;;;;5051602;28;20248;-59
2023/06/25 17:15:02;;;;;;;10.43;9.40;;;;;;;;;;5052530;28;20056;-60
2023/06/25 17:17:27;;;;;;;12.30;9.15;;;;;;;;;;5052903;28;20462;-58
2023/06/25 17:19:53;;;;;;;13.25;9.98;;;;;;;;;;5052623;28;20461;-59
2023/06/25 17:22:18;;;;;;;12.80;10.13;;;;;;;;;;5051951;28;20033;-59
2023/06/25 17:24:44;;;;;;;11.00;9.70;;;;;;;;;;5050970;28;20029;-59
2023/06/25 17:27:09;;;;;;;11.40;9.15;;;;;;;;;;5050681;28;20367;-59
2023/06/25 17:29:35;;;;;;;9.98;8.98;;;;;;;;;;5050664;28;20029;-59
2023/06/25 17:32:00;;;;;;;11.82;9.05;;;;;;;;;;5051285;28;20116;-59
2023/06/25 17:34:26;;;;;;;10.70;9.15;;;;;;;;;;5051552;28;20043;-59
2023/06/25 17:36:52;;;;;;;14.35;8.93;;;;;;;;;;5051550;28;20021;-60
2023/06/25 17:39:17;;;;;;;11.88;8.95;;;;;;;;;;5052040;28;20054;-59
2023/06/25 17:41:43;;;;;;;9.98;8.98;;;;;;;;;;5052555;28;20021;-59
2023/06/25 17:44:08;;;;;;;10.63;8.95;;;;;;;;;;5052191;28;20029;-59
2023/06/25 17:46:34;;;;;;;10.55;8.90;;;;;;;;;;5052324;28;20033;-60
2023/06/25 17:49:00;;;;;;;9.38;8.45;;;;;;;;;;5052211;28;20392;-59
2023/06/25 17:51:25;;;;;;;11.38;9.43;;;;;;;;;;5052115;28;20029;-60
2023/06/25 17:53:51;;;;;;;9.68;8.68;;;;;;;;;;5052544;28;20120;-59
2023/06/25 17:56:17;;;;;;;9.48;8.48;;;;;;;;;;5052210;28;20029;-59
2023/06/25 17:58:42;;;;;;;9.23;8.20;;;;;;;;;;5052172;28;20056;-59
2023/06/25 18:01:08;;;;;;;11.18;8.90;;;;;;;;;;5052189;28;20037;-59
2023/06/25 18:03:33;;;;;;;10.10;8.38;;;;;;;;;;5052138;28;20109;-59
2023/06/25 18:05:59;;;;;;;9.40;8.52;;;;;;;;;;5052241;28;20052;-59
2023/06/25 18:08:25;;;;;;;12.90;8.85;;;;;;;;;;5051826;28;20029;-59
2023/06/25 18:10:54;;;;;;;10.55;8.93;;;;;;;;;;5052237;28;20029;-59
2023/06/25 18:13:21;;;;;;;10.07;8.50;;;;;;;;;;5052009;28;20032;-59
2023/06/25 18:15:46;;;;;;;10.05;8.27;;;;;;;;;;5052273;28;20195;-59
2023/06/25 18:18:21;;;;;;;11.25;8.60;;;;;;;;;;5052323;28;20174;-59
2023/06/25 18:20:47;;;;;;;9.05;8.18;;;;;;;;;;5051970;28;20125;-59